Time;durP1;ratioP1;P1;durP2;ratioP2;P2;SDS_P1;SDS_P2;PMS_P1;PMS_P2;Temp;Humidity;BMP_temperature;BMP_pressure;BME280_temperature;BME280_humidity;BME280_pressure;Samples;Min_cycle;Max_cycle;Signal;HPM_P1;HPM_P2
2022/12/05 00:01:21;;;;;;;6.20;5.70;;;20.40;52.00;;;;;;5041165;28;43661;-59
2022/12/05 00:03:51;;;;;;;5.78;5.15;;;20.50;52.10;;;;;;5041447;28;44101;-59
2022/12/05 00:06:20;;;;;;;5.50;5.03;;;20.40;52.10;;;;;;5041034;28;43373;-59
2022/12/05 00:08:48;;;;;;;6.03;5.53;;;20.40;52.10;;;;;;5041381;28;44748;-59
2022/12/05 00:11:21;;;;;;;6.20;5.60;;;20.40;52.10;;;;;;5036202;28;43690;-59
2022/12/05 00:13:50;;;;;;;5.50;5.00;;;20.40;52.10;;;;;;5041176;28;43422;-59
2022/12/05 00:16:21;;;;;;;6.05;5.45;;;20.40;52.10;;;;;;5041633;28;43417;-59
2022/12/05 00:18:49;;;;;;;5.65;5.15;;;20.40;52.10;;;;;;5039961;28;43801;-59
2022/12/05 00:21:25;;;;;;;5.78;5.28;;;20.40;52.10;;;;;;5023936;28;44100;-59
2022/12/05 00:23:54;;;;;;;6.20;5.53;;;20.40;52.10;;;;;;5041583;28;43400;-59
2022/12/05 00:26:22;;;;;;;5.70;5.20;;;20.30;52.20;;;;;;5041213;28;43490;-60
2022/12/05 00:28:50;;;;;;;5.57;5.07;;;20.40;52.30;;;;;;5040830;28;44676;-57
2022/12/05 00:31:22;;;;;;;5.43;4.93;;;20.30;52.20;;;;;;5040738;28;43795;-59
2022/12/05 00:33:50;;;;;;;6.22;5.65;;;20.30;52.20;;;;;;5041572;28;43434;-59
2022/12/05 00:36:26;;;;;;;6.15;5.55;;;20.30;52.20;;;;;;5041253;28;43960;-59
2022/12/05 00:38:54;;;;;;;5.50;5.00;;;20.30;52.20;;;;;;5040496;28;45064;-59
2022/12/05 00:41:24;;;;;;;5.80;5.30;;;20.30;52.20;;;;;;5033925;28;43436;-59
2022/12/05 00:43:52;;;;;;;5.90;5.40;;;20.30;52.20;;;;;;5041228;28;43391;-59
2022/12/05 00:46:23;;;;;;;5.38;4.88;;;20.30;52.20;;;;;;5041678;28;43711;-59
2022/12/05 00:48:55;;;;;;;5.32;4.82;;;20.30;52.20;;;;;;5040042;28;44941;-59
2022/12/05 00:51:34;;;;;;;5.63;5.10;;;20.30;52.20;;;;;;5039397;28;43450;-59
2022/12/05 00:54:06;;;;;;;5.35;4.90;;;20.30;52.30;;;;;;5041275;28;43375;-59
2022/12/05 00:56:34;;;;;;;5.65;5.15;;;20.20;52.20;;;;;;5040688;28;43483;-60
2022/12/05 00:59:04;;;;;;;5.40;4.93;;;20.20;52.20;;;;;;5040922;28;44999;-59
2022/12/05 01:01:38;;;;;;;5.38;4.88;;;20.20;52.30;;;;;;5040807;28;44106;-59
2022/12/05 01:04:10;;;;;;;7.15;5.22;;;20.20;52.30;;;;;;5040028;28;43473;-59
2022/12/05 01:06:39;;;;;;;5.60;5.10;;;20.20;52.30;;;;;;5040744;28;43416;-59
2022/12/05 01:09:07;;;;;;;4.70;4.30;;;20.20;52.30;;;;;;5040348;28;43984;-60
2022/12/05 01:11:35;;;;;;;4.57;4.18;;;20.20;52.30;;;;;;5031777;28;43522;-59
2022/12/05 01:14:09;;;;;;;5.82;5.32;;;20.10;52.30;;;;;;5037134;28;43458;-59
2022/12/05 01:16:39;;;;;;;4.88;4.47;;;20.10;52.30;;;;;;5021150;28;43610;-59
2022/12/05 01:19:11;;;;;;;4.55;4.15;;;20.10;52.30;;;;;;5029368;28;45127;-59
2022/12/05 01:21:39;;;;;;;5.07;4.57;;;20.10;52.30;;;;;;5040847;28;43697;-59
2022/12/05 01:24:07;;;;;;;4.93;4.53;;;20.10;52.30;;;;;;5039948;28;43487;-59
2022/12/05 01:26:34;;;;;;;4.97;4.53;;;20.10;52.30;;;;;;5040786;28;43464;-59
2022/12/05 01:29:03;;;;;;;4.53;4.13;;;20.10;52.30;;;;;;5040331;28;44856;-59
2022/12/05 01:31:34;;;;;;;4.50;4.10;;;20.10;52.30;;;;;;5040312;28;43395;-59
2022/12/05 01:34:04;;;;;;;4.90;4.40;;;20.20;52.30;;;;;;5039860;28;43455;-59
2022/12/05 01:36:32;;;;;;;5.20;4.72;;;20.10;52.20;;;;;;5040668;28;43504;-59
2022/12/05 01:39:00;;;;;;;4.68;4.28;;;20.10;52.20;;;;;;5039989;28;43952;-60
2022/12/05 01:41:33;;;;;;;4.53;4.13;;;20.20;52.30;;;;;;5040493;28;44779;-59
2022/12/05 01:44:12;;;;;;;4.90;4.50;;;20.10;52.20;;;;;;5043053;28;43455;-59
2022/12/05 01:46:47;;;;;;;4.68;4.28;;;20.10;52.20;;;;;;5043268;28;43484;-59
2022/12/05 01:49:26;;;;;;;4.20;3.90;;;20.10;52.20;;;;;;5043566;28;43944;-59
2022/12/05 01:52:09;;;;;;;4.00;3.70;;;20.10;52.20;;;;;;5042919;28;43444;-59
2022/12/05 01:54:37;;;;;;;4.70;4.28;;;20.10;52.20;;;;;;5043772;28;43443;-59
2022/12/05 01:57:09;;;;;;;4.53;4.13;;;20.10;52.30;;;;;;5044152;28;43494;-59
2022/12/05 01:59:44;;;;;;;4.47;4.07;;;20.00;52.30;;;;;;5042256;28;43966;-59
2022/12/05 02:02:12;;;;;;;3.97;3.67;;;20.00;52.30;;;;;;5043752;28;43735;-59
2022/12/05 02:04:57;;;;;;;4.40;4.00;;;20.10;52.40;;;;;;5025425;28;43411;-59
2022/12/05 02:07:26;;;;;;;3.83;3.47;;;20.10;52.30;;;;;;5040049;28;43457;-60
2022/12/05 02:09:53;;;;;;;3.95;3.65;;;20.10;52.40;;;;;;5029118;28;43809;-60
2022/12/05 02:12:22;;;;;;;3.90;3.60;;;20.00;52.30;;;;;;5038371;28;44284;-59
2022/12/05 02:15:05;;;;;;;4.25;3.88;;;20.00;52.30;;;;;;5043051;28;43423;-59
2022/12/05 02:17:46;;;;;;;4.10;3.70;;;20.10;52.30;;;;;;5043351;28;43396;-60
2022/12/05 02:20:44;;;;;;;3.88;3.58;;;20.10;52.30;;;;;;5042111;28;45108;-59
2022/12/05 02:23:21;;;;;;;3.95;3.65;;;20.00;52.30;;;;;;5024353;28;43508;-59
2022/12/05 02:26:00;;;;;;;3.90;3.50;;;20.00;52.30;;;;;;5030691;28;43382;-59
2022/12/05 02:28:46;;;;;;;3.83;3.53;;;20.00;52.30;;;;;;5042474;28;43372;-59
2022/12/05 02:31:19;;;;;;;3.70;3.40;;;20.00;52.30;;;;;;5042757;28;45021;-59
2022/12/05 02:33:58;;;;;;;3.72;3.42;;;20.00;52.40;;;;;;5043193;28;43396;-59
2022/12/05 02:36:46;;;;;;;3.80;3.50;;;19.90;52.30;;;;;;5043219;28;43412;-59
2022/12/05 02:43:31;;;;;;;3.78;3.38;;;20.00;52.40;;;;;;5042406;28;44959;-59
2022/12/05 02:46:02;;;;;;;3.60;3.25;;;19.90;52.40;;;;;;5043359;28;44089;-59
2022/12/05 02:48:32;;;;;;;3.45;3.15;;;19.90;52.50;;;;;;5042293;28;43426;-59
2022/12/05 02:51:01;;;;;;;3.67;3.38;;;19.90;52.50;;;;;;5023998;28;43476;-59
2022/12/05 02:53:31;;;;;;;3.17;2.90;;;19.90;52.40;;;;;;5030492;28;43873;-59
2022/12/05 02:55:59;;;;;;;3.15;2.95;;;19.90;52.40;;;;;;5042903;28;43825;-59
2022/12/05 02:58:35;;;;;;;3.53;3.22;;;19.90;52.40;;;;;;5042439;28;43487;-59
2022/12/05 03:01:02;;;;;;;3.22;3.03;;;19.90;52.40;;;;;;5043411;28;43384;-60
2022/12/05 03:03:32;;;;;;;3.50;3.20;;;19.80;52.40;;;;;;5041862;28;43808;-59
2022/12/05 03:06:13;;;;;;;3.00;2.80;;;19.80;52.40;;;;;;5042530;28;43956;-59
2022/12/05 03:09:04;;;;;;;3.38;3.08;;;19.80;52.50;;;;;;5042185;28;43506;-59
2022/12/05 03:11:59;;;;;;;3.10;2.83;;;19.80;52.50;;;;;;5042242;28;43438;-59
2022/12/05 03:14:32;;;;;;;3.10;2.80;;;19.80;52.50;;;;;;5042000;28;43936;-59
2022/12/05 03:17:04;;;;;;;3.08;2.47;;;19.80;52.50;;;;;;5042438;28;44014;-59
2022/12/05 03:19:43;;;;;;;2.92;2.72;;;19.80;52.60;;;;;;5042460;28;43475;-59
2022/12/05 03:22:40;;;;;;;2.83;2.63;;;19.80;52.50;;;;;;5035466;28;43474;-59
2022/12/05 03:25:09;;;;;;;3.63;3.33;;;19.80;52.50;;;;;;5041774;28;44907;-59
2022/12/05 03:27:58;;;;;;;3.28;2.83;;;19.80;52.60;;;;;;5042067;28;43470;-59
2022/12/05 03:30:28;;;;;;;2.80;2.60;;;19.70;52.50;;;;;;5026750;28;43470;-59
2022/12/05 03:33:24;;;;;;;3.28;2.60;;;19.70;52.50;;;;;;5042311;28;44107;-59
2022/12/05 03:36:17;;;;;;;2.60;2.40;;;19.80;52.60;;;;;;5021222;28;44224;-59
2022/12/05 03:38:56;;;;;;;3.00;2.80;;;19.70;52.60;;;;;;5041080;28;43495;-59
2022/12/05 03:41:51;;;;;;;2.90;2.70;;;19.70;52.60;;;;;;5042304;28;43448;-59
2022/12/05 03:44:27;;;;;;;2.95;2.75;;;19.70;52.60;;;;;;5041596;28;43532;-59
2022/12/05 03:47:15;;;;;;;2.88;2.67;;;19.70;52.60;;;;;;5042679;28;43899;-59
2022/12/05 03:49:47;;;;;;;2.80;2.60;;;19.70;52.70;;;;;;5041537;28;43661;-59
2022/12/05 03:52:20;;;;;;;2.75;2.55;;;19.70;52.80;;;;;;5041267;28;43445;-59
2022/12/05 03:54:56;;;;;;;2.80;2.60;;;19.70;52.70;;;;;;5042006;28;43406;-59
2022/12/05 03:57:38;;;;;;;2.53;2.33;;;19.60;52.70;;;;;;5042575;28;44775;-59
2022/12/05 04:00:09;;;;;;;2.30;2.20;;;19.60;52.70;;;;;;5021953;28;43428;-59
2022/12/05 04:02:44;;;;;;;;;;;19.60;52.70;;;;;;5031491;28;43508;-59
2022/12/05 04:05:39;;;;;;;2.63;2.42;;;19.60;52.70;;;;;;5022961;28;43530;-59
2022/12/05 04:08:29;;;;;;;2.63;2.40;;;19.60;52.80;;;;;;5022059;28;43906;-59
2022/12/05 04:11:05;;;;;;;2.60;2.40;;;19.60;52.80;;;;;;5033427;28;43459;-59
2022/12/05 04:14:10;;;;;;;2.58;2.38;;;19.60;52.80;;;;;;5040426;28;43448;-59
2022/12/05 04:17:02;;;;;;;2.70;2.50;;;19.60;52.90;;;;;;5041782;28;43809;-59
2022/12/05 04:22:50;;;;;;;2.35;2.20;;;19.60;52.90;;;;;;5037347;28;43797;-59
2022/12/05 04:25:33;;;;;;;2.63;2.42;;;19.50;52.90;;;;;;5041707;28;43638;-60
2022/12/05 04:28:24;;;;;;;2.50;2.30;;;19.50;52.90;;;;;;5040931;28;43581;-59
2022/12/05 04:31:09;;;;;;;2.42;2.22;;;19.50;52.90;;;;;;5041379;28;44677;-59
2022/12/05 04:33:46;;;;;;;2.58;2.38;;;19.50;52.90;;;;;;5040557;28;43742;-59
2022/12/05 04:36:16;;;;;;;2.60;2.40;;;19.50;52.90;;;;;;5041288;28;43397;-59
2022/12/05 04:38:51;;;;;;;2.63;2.42;;;19.50;52.90;;;;;;5024715;28;43465;-59
2022/12/05 04:41:33;;;;;;;2.55;2.35;;;19.50;52.90;;;;;;5035475;28;45129;-59
2022/12/05 04:44:06;;;;;;;2.38;2.17;;;19.50;52.90;;;;;;5033159;28;43828;-59
2022/12/05 04:46:37;;;;;;;2.40;2.20;;;19.40;52.90;;;;;;5041029;28;43406;-59
2022/12/05 04:49:06;;;;;;;;;;;19.40;52.90;;;;;;5025869;28;43533;-59
2022/12/05 04:51:35;;;;;;;2.30;2.10;;;19.40;53.00;;;;;;5041205;28;44842;-59
2022/12/05 04:54:31;;;;;;;2.33;2.13;;;19.40;53.10;;;;;;5040955;28;43668;-59
2022/12/05 04:57:14;;;;;;;2.50;2.30;;;19.40;53.10;;;;;;5020944;28;43499;-60
2022/12/05 04:59:42;;;;;;;3.47;2.47;;;19.40;53.10;;;;;;5032201;28;43554;-59
2022/12/05 05:02:14;;;;;;;2.28;2.10;;;19.40;53.10;;;;;;5040378;28;45129;-59
2022/12/05 05:04:46;;;;;;;2.60;2.40;;;19.40;53.00;;;;;;5040139;28;43487;-59
2022/12/05 05:07:14;;;;;;;2.42;2.13;;;19.40;53.10;;;;;;5041015;28;43369;-59
2022/12/05 05:09:41;;;;;;;2.40;2.20;;;19.40;53.10;;;;;;5039746;28;43427;-59
2022/12/05 05:12:09;;;;;;;2.60;2.40;;;19.40;53.10;;;;;;5040738;28;43997;-59
2022/12/05 05:14:44;;;;;;;2.70;2.50;;;19.40;53.10;;;;;;5040793;28;43397;-59
2022/12/05 05:17:11;;;;;;;2.75;2.55;;;19.30;53.10;;;;;;5042130;28;43409;-59
2022/12/05 05:19:39;;;;;;;2.42;2.22;;;19.30;53.10;;;;;;5034511;28;43510;-59
2022/12/05 05:22:06;;;;;;;2.70;2.50;;;19.30;53.10;;;;;;5042360;28;43881;-59
2022/12/05 05:24:34;;;;;;;2.50;2.30;;;19.30;53.10;;;;;;5043245;28;43480;-59
2022/12/05 05:27:01;;;;;;;2.60;2.33;;;19.30;53.10;;;;;;5045104;28;43484;-59
2022/12/05 05:29:29;;;;;;;2.40;2.20;;;19.30;53.10;;;;;;5043548;28;43439;-60
2022/12/05 05:31:56;;;;;;;2.40;2.20;;;19.30;53.10;;;;;;5043949;28;44967;-59
2022/12/05 05:34:25;;;;;;;2.42;2.20;;;19.30;53.10;;;;;;5038554;28;43720;-59
2022/12/05 05:36:52;;;;;;;2.33;2.13;;;19.30;53.10;;;;;;5033665;28;43439;-60
2022/12/05 05:39:20;;;;;;;2.38;2.17;;;19.20;53.10;;;;;;5043603;28;43520;-59
2022/12/05 05:41:47;;;;;;;2.30;2.10;;;19.30;53.20;;;;;;5043876;28;44012;-60
2022/12/05 05:44:14;;;;;;;2.40;2.20;;;19.20;53.20;;;;;;5043297;28;43512;-59
2022/12/05 05:46:41;;;;;;;2.35;2.20;;;19.20;53.20;;;;;;5044070;28;43456;-59
2022/12/05 05:49:09;;;;;;;2.15;1.95;;;19.20;53.20;;;;;;5043514;28;43421;-59
2022/12/05 05:51:36;;;;;;;2.10;2.00;;;19.20;53.20;;;;;;5041867;28;43995;-59
2022/12/05 05:54:04;;;;;;;2.80;2.30;;;19.20;53.20;;;;;;5029367;28;43431;-59
2022/12/05 05:56:31;;;;;;;2.15;2.05;;;19.20;53.20;;;;;;5043844;28;43471;-59
2022/12/05 05:59:01;;;;;;;2.88;2.15;;;19.20;53.20;;;;;;5043294;28;43470;-59
2022/12/05 06:01:29;;;;;;;2.15;2.05;;;19.10;53.20;;;;;;5043584;28;44802;-59
2022/12/05 06:03:57;;;;;;;2.55;2.10;;;19.20;53.30;;;;;;5039596;28;43729;-59
2022/12/05 06:06:25;;;;;;;2.10;2.00;;;19.10;53.20;;;;;;5042583;28;44177;-59
2022/12/05 06:08:53;;;;;;;2.33;2.13;;;19.10;53.20;;;;;;5041380;28;43509;-59
2022/12/05 06:11:24;;;;;;;1.98;1.88;;;19.10;53.30;;;;;;5032552;28;43984;-60
2022/12/05 06:13:59;;;;;;;1.85;1.75;;;19.10;53.30;;;;;;5036086;28;44025;-59
2022/12/05 06:16:29;;;;;;;2.00;1.90;;;19.10;53.30;;;;;;5023451;28;43466;-59
2022/12/05 06:18:57;;;;;;;2.13;2.00;;;19.10;53.30;;;;;;5038875;28;43413;-59
2022/12/05 06:21:25;;;;;;;2.78;2.15;;;19.10;53.30;;;;;;5039161;28;44872;-59
2022/12/05 06:23:53;;;;;;;2.28;2.05;;;19.10;53.30;;;;;;5031173;28;43839;-59
2022/12/05 06:26:21;;;;;;;2.20;2.10;;;19.10;53.30;;;;;;5041974;28;43469;-60
2022/12/05 06:28:49;;;;;;;2.22;2.05;;;19.10;53.40;;;;;;5022558;28;43473;-59
2022/12/05 06:31:20;;;;;;;1.98;1.88;;;19.10;53.40;;;;;;5027536;28;43888;-59
2022/12/05 06:33:48;;;;;;;2.17;2.00;;;19.10;53.30;;;;;;5033805;28;43387;-59
2022/12/05 06:36:18;;;;;;;1.85;1.75;;;19.10;53.20;;;;;;5034329;28;43407;-59
2022/12/05 06:38:46;;;;;;;2.13;1.92;;;19.10;53.20;;;;;;5039568;28;43471;-59
2022/12/05 06:41:16;;;;;;;1.98;1.88;;;19.10;53.20;;;;;;5027605;28;44102;-60
2022/12/05 06:43:44;;;;;;;2.47;1.92;;;19.10;53.20;;;;;;5033528;28;44005;-59
2022/12/05 06:46:13;;;;;;;1.98;1.88;;;19.10;53.20;;;;;;5036944;28;43446;-59
2022/12/05 06:48:40;;;;;;;1.90;1.80;;;19.10;53.30;;;;;;5026511;28;43432;-59
2022/12/05 06:51:10;;;;;;;1.92;1.80;;;19.10;53.20;;;;;;5036090;28;44814;-59
2022/12/05 06:53:38;;;;;;;1.90;1.80;;;19.10;53.20;;;;;;5032804;28;43411;-60
2022/12/05 06:56:07;;;;;;;2.47;1.90;;;19.10;53.20;;;;;;5026946;28;43361;-59
2022/12/05 06:58:34;;;;;;;2.05;1.85;;;19.10;53.10;;;;;;5039418;28;43485;-59
2022/12/05 07:03:48;;;;;;;1.90;1.80;;;19.00;53.20;;;;;;5033180;28;43631;-60
2022/12/05 07:06:16;;;;;;;1.90;1.80;;;19.00;53.30;;;;;;5029846;28;43409;-59
2022/12/05 07:08:43;;;;;;;1.88;1.77;;;19.00;53.30;;;;;;5037251;28;43577;-59
2022/12/05 07:11:11;;;;;;;2.00;1.90;;;19.10;53.20;;;;;;5028985;28;43989;-59
2022/12/05 07:13:38;;;;;;;1.95;1.85;;;19.10;53.20;;;;;;5035281;28;43440;-59
2022/12/05 07:16:06;;;;;;;1.90;1.80;;;19.10;53.20;;;;;;5040312;28;43364;-59
2022/12/05 07:18:34;;;;;;;1.70;1.60;;;19.10;53.20;;;;;;5027097;28;44076;-59
2022/12/05 07:21:05;;;;;;;1.80;1.70;;;19.00;53.10;;;;;;5033605;28;44892;-59
2022/12/05 07:23:42;;;;;;;2.25;1.67;;;19.00;53.10;;;;;;5036810;28;43819;-59
2022/12/05 07:26:13;;;;;;;1.88;1.77;;;19.10;53.20;;;;;;5039071;28;43568;-59
2022/12/05 07:28:41;;;;;;;1.80;1.70;;;19.00;53.20;;;;;;5029323;28;43531;-59
2022/12/05 07:31:29;;;;;;;1.90;1.80;;;19.00;53.20;;;;;;5030542;28;44766;-60
2022/12/05 07:33:56;;;;;;;1.67;1.58;;;19.00;53.20;;;;;;5038329;28;43647;-60
2022/12/05 07:36:24;;;;;;;1.70;1.60;;;19.00;53.10;;;;;;5036429;28;43430;-59
2022/12/05 07:38:56;;;;;;;2.50;1.85;;;19.00;53.20;;;;;;5028660;28;43589;-60
2022/12/05 07:41:26;;;;;;;1.60;1.50;;;19.00;53.20;;;;;;5037094;28;44871;-59
2022/12/05 07:43:55;;;;;;;1.80;1.70;;;19.00;53.20;;;;;;5038278;28;44055;-60
2022/12/05 07:46:23;;;;;;;1.90;1.70;;;19.00;53.20;;;;;;5029052;28;43393;-59
2022/12/05 07:48:52;;;;;;;1.92;1.65;;;19.00;53.20;;;;;;5030224;28;44007;-60
2022/12/05 07:51:19;;;;;;;1.55;1.45;;;19.00;53.10;;;;;;5021916;28;44912;-59
2022/12/05 07:53:47;;;;;;;1.90;1.80;;;19.00;53.10;;;;;;5025556;28;43441;-60
2022/12/05 07:56:16;;;;;;;1.95;1.85;;;19.00;53.10;;;;;;5034629;28;43447;-60
2022/12/05 07:58:45;;;;;;;3.75;1.67;;;19.00;53.10;;;;;;5033364;28;43437;-60
2022/12/05 08:01:18;;;;;;;2.50;1.63;;;19.00;53.40;;;;;;5024017;28;43812;-60
2022/12/05 08:03:45;;;;;;;1.65;1.55;;;19.00;53.50;;;;;;5036215;28;43756;-60
2022/12/05 08:06:22;;;;;;;2.60;1.80;;;19.00;53.30;;;;;;5031169;28;43463;-60
2022/12/05 08:08:50;;;;;;;1.92;1.83;;;19.00;53.30;;;;;;5034701;28;43547;-60
2022/12/05 08:11:28;;;;;;;2.30;1.95;;;18.90;53.90;;;;;;5034583;28;43470;-60
2022/12/05 08:13:57;;;;;;;2.05;1.95;;;18.90;53.40;;;;;;5033707;28;43384;-60
2022/12/05 08:16:27;;;;;;;1.92;1.83;;;18.90;53.40;;;;;;5032875;28;43349;-60
2022/12/05 08:19:00;;;;;;;2.28;2.08;;;18.90;53.40;;;;;;5039052;28;43520;-60
2022/12/05 08:21:28;;;;;;;1.70;1.60;;;18.90;53.40;;;;;;5028167;28;44276;-59
2022/12/05 08:23:56;;;;;;;1.77;1.67;;;18.90;53.40;;;;;;5029952;28;44033;-60
2022/12/05 08:26:26;;;;;;;1.80;1.70;;;18.90;53.50;;;;;;5027505;28;43399;-60
2022/12/05 08:28:56;;;;;;;1.80;1.70;;;18.90;53.60;;;;;;5035768;28;43458;-60
2022/12/05 08:31:25;;;;;;;2.25;1.90;;;18.80;53.50;;;;;;5026165;28;44805;-60
2022/12/05 08:33:57;;;;;;;6.13;2.25;;;18.80;53.70;;;;;;5028438;28;43474;-61
2022/12/05 08:36:27;;;;;;;3.87;2.10;;;18.80;53.70;;;;;;5035843;28;43399;-61
2022/12/05 08:38:59;;;;;;;4.45;2.10;;;18.90;53.70;;;;;;5024934;28;43486;-62
2022/12/05 08:41:28;;;;;;;5.88;2.10;;;18.90;53.70;;;;;;5026898;28;44990;-62
2022/12/05 08:44:04;;;;;;;2.03;1.85;;;18.90;53.70;;;;;;5032639;28;43419;-62
2022/12/05 08:46:34;;;;;;;3.33;2.15;;;18.90;53.70;;;;;;5039761;28;43527;-62
2022/12/05 08:49:04;;;;;;;2.33;1.97;;;18.90;53.70;;;;;;5025655;28;43459;-62
2022/12/05 08:51:31;;;;;;;2.75;1.92;;;19.00;53.60;;;;;;5032836;28;44796;-62
2022/12/05 08:54:01;;;;;;;2.15;2.03;;;19.10;53.50;;;;;;5037477;28;43444;-61
2022/12/05 08:56:29;;;;;;;2.10;1.90;;;19.10;53.50;;;;;;5041977;28;43387;-62
2022/12/05 08:58:56;;;;;;;5.05;2.45;;;19.20;53.40;;;;;;5030472;28;43506;-61
2022/12/05 09:01:35;;;;;;;3.80;2.05;;;19.30;53.10;;;;;;5024557;28;45442;-61
2022/12/05 09:04:04;;;;;;;2.47;2.00;;;19.40;53.20;;;;;;5034966;28;43940;-61
2022/12/05 09:06:33;;;;;;;2.25;1.80;;;19.40;53.00;;;;;;5027978;28;43525;-61
2022/12/05 09:09:04;;;;;;;2.53;2.08;;;19.50;53.00;;;;;;5042732;28;43511;-61
2022/12/05 09:11:35;;;;;;;2.33;1.90;;;19.60;52.90;;;;;;5035530;28;44754;-61
2022/12/05 09:14:04;;;;;;;2.13;1.90;;;19.70;52.80;;;;;;5041456;28;43370;-61
2022/12/05 09:16:33;;;;;;;3.03;2.60;;;19.70;52.60;;;;;;5028387;28;43549;-61
2022/12/05 09:19:17;;;;;;;2.60;2.05;;;19.80;52.60;;;;;;5034985;28;43542;-61
2022/12/05 09:21:44;;;;;;;3.05;2.10;;;19.90;52.50;;;;;;5039159;28;43902;-62
2022/12/05 09:24:12;;;;;;;2.83;1.92;;;20.00;52.40;;;;;;5027839;28;43470;-61
2022/12/05 09:26:40;;;;;;;2.67;2.03;;;20.10;52.40;;;;;;5037192;28;43530;-62
2022/12/05 09:29:09;;;;;;;2.38;2.17;;;20.20;52.30;;;;;;5034557;28;43474;-62
2022/12/05 09:31:44;;;;;;;2.05;1.85;;;20.30;52.20;;;;;;5028287;28;45024;-61
2022/12/05 09:34:12;;;;;;;2.42;2.10;;;20.40;52.00;;;;;;5028208;28;43936;-61
2022/12/05 09:36:40;;;;;;;2.38;2.10;;;20.50;51.90;;;;;;5032032;28;43435;-61
2022/12/05 09:39:09;;;;;;;3.40;2.55;;;20.60;51.80;;;;;;5036996;28;43484;-61
2022/12/05 09:42:03;;;;;;;;;;;20.70;51.50;;;;;;5026012;28;45100;-61
2022/12/05 09:45:08;;;;;;;2.45;2.25;;;20.70;51.30;;;;;;5035365;28;44024;-61
2022/12/05 09:47:47;;;;;;;3.00;2.05;;;20.80;51.30;;;;;;5040666;28;43447;-61
2022/12/05 09:50:38;;;;;;;2.15;1.92;;;20.90;51.20;;;;;;5030192;28;43519;-62
2022/12/05 09:53:15;;;;;;;2.35;2.13;;;21.00;51.30;;;;;;5028940;28;43897;-62
2022/12/05 09:56:08;;;;;;;2.25;2.03;;;21.00;51.20;;;;;;5039966;28;43790;-62
2022/12/05 09:58:49;;;;;;;4.85;2.30;;;21.10;51.00;;;;;;5034228;28;43463;-61
2022/12/05 10:01:41;;;;;;;3.58;2.30;;;21.10;50.90;;;;;;5042042;28;43434;-62
2022/12/05 10:04:37;;;;;;;2.90;2.03;;;21.20;51.10;;;;;;5035575;28;44700;-61
2022/12/05 10:07:37;;;;;;;4.28;2.00;;;21.30;51.20;;;;;;5027295;28;43802;-63
2022/12/05 10:10:17;;;;;;;5.35;2.33;;;21.40;51.30;;;;;;4992382;28;43457;-60
2022/12/05 10:13:17;;;;;;;5.57;2.20;;;21.50;51.20;;;;;;5042582;28;43908;-62
2022/12/05 10:15:49;;;;;;;3.42;2.25;;;21.60;51.30;;;;;;5029991;28;44824;-61
2022/12/05 10:18:56;;;;;;;3.55;2.50;;;21.70;51.20;;;;;;5030500;28;43457;-61
2022/12/05 10:21:30;;;;;;;3.35;2.30;;;21.80;50.90;;;;;;5033592;28;43452;-62
2022/12/05 10:24:01;;;;;;;2.95;2.70;;;22.00;50.70;;;;;;5034557;28;43445;-61
2022/12/05 10:26:35;;;;;;;3.15;2.50;;;22.20;50.60;;;;;;5036697;28;44825;-61
2022/12/05 10:29:22;;;;;;;2.65;2.28;;;22.30;50.20;;;;;;5040065;28;43790;-62
2022/12/05 10:31:53;;;;;;;3.42;2.72;;;22.40;50.20;;;;;;5032827;28;43456;-62
2022/12/05 10:34:32;;;;;;;3.35;2.53;;;22.50;50.00;;;;;;5028899;28;43393;-62
2022/12/05 10:37:18;;;;;;;2.95;2.40;;;22.60;49.70;;;;;;5042406;28;43797;-62
2022/12/05 10:39:46;;;;;;;2.70;2.45;;;22.60;49.60;;;;;;5032363;28;43914;-63
2022/12/05 10:42:33;;;;;;;3.72;2.40;;;22.60;49.60;;;;;;5037534;28;43373;-62
2022/12/05 10:45:07;;;;;;;2.85;2.35;;;22.60;49.50;;;;;;5028006;28;43460;-62
2022/12/05 10:47:35;;;;;;;3.05;2.10;;;22.70;49.60;;;;;;5040314;28;44055;-62
2022/12/05 10:50:06;;;;;;;2.95;2.60;;;22.70;49.50;;;;;;5029540;28;43976;-62
2022/12/05 10:52:34;;;;;;;2.63;2.35;;;22.70;49.50;;;;;;5025665;28;43542;-62
2022/12/05 10:55:05;;;;;;;3.75;2.30;;;22.70;49.50;;;;;;5036148;28;43564;-62
2022/12/05 10:57:32;;;;;;;2.70;2.40;;;22.70;49.50;;;;;;5033649;28;43882;-62
2022/12/05 11:00:14;;;;;;;4.32;2.67;;;22.60;49.50;;;;;;5041058;28;43658;-62
2022/12/05 11:02:42;;;;;;;4.28;2.80;;;22.60;49.60;;;;;;5026423;28;43439;-62
2022/12/05 11:05:10;;;;;;;4.57;3.50;;;22.60;49.60;;;;;;5033432;28;43435;-62
2022/12/05 11:07:44;;;;;;;6.40;4.05;;;22.50;49.70;;;;;;5033391;28;43869;-61
2022/12/05 11:10:24;;;;;;;6.75;4.85;;;22.50;49.80;;;;;;5031614;28;43557;-62
2022/12/05 11:12:57;;;;;;;7.75;5.60;;;22.50;49.90;;;;;;5031505;28;43607;-62
2022/12/05 11:15:27;;;;;;;7.90;5.97;;;22.40;50.00;;;;;;5045849;28;43465;-62
2022/12/05 11:18:15;;;;;;;10.70;7.05;;;22.40;50.00;;;;;;5031520;28;44054;-62
2022/12/05 11:20:43;;;;;;;11.43;8.05;;;22.40;50.10;;;;;;5031678;28;43509;-62
2022/12/05 11:23:26;;;;;;;11.90;8.52;;;22.30;50.20;;;;;;5031194;28;43495;-62
2022/12/05 11:25:57;;;;;;;12.30;9.85;;;22.20;50.30;;;;;;5033340;28;43550;-62
2022/12/05 11:28:31;;;;;;;12.97;9.17;;;22.20;50.30;;;;;;5030730;28;43974;-61
2022/12/05 11:31:11;;;;;;;14.40;10.60;;;22.10;50.40;;;;;;5034294;28;43396;-62
2022/12/05 11:33:40;;;;;;;13.07;9.57;;;22.10;50.50;;;;;;5033346;28;43531;-62
2022/12/05 11:36:20;;;;;;;13.63;10.27;;;22.00;50.60;;;;;;5032647;28;43503;-61
2022/12/05 11:38:49;;;;;;;14.70;11.20;;;21.90;50.60;;;;;;5028082;28;44775;-61
2022/12/05 11:41:48;;;;;;;13.20;10.93;;;21.90;50.70;;;;;;5029580;28;43518;-61
2022/12/05 11:44:38;;;;;;;16.75;11.98;;;21.90;50.80;;;;;;5028929;28;43445;-61
2022/12/05 11:47:15;;;;;;;16.33;12.23;;;21.80;50.90;;;;;;5022322;28;43433;-62
2022/12/05 11:50:05;;;;;;;14.57;11.93;;;21.70;51.00;;;;;;5034792;28;44709;-61
2022/12/05 11:52:35;;;;;;;15.18;11.68;;;21.60;51.00;;;;;;5028850;28;43421;-62
2022/12/05 11:55:36;;;;;;;15.00;11.95;;;21.60;51.20;;;;;;5035700;28;43409;-62
2022/12/05 11:58:19;;;;;;;15.98;11.30;;;21.60;51.60;;;;;;5029855;28;43511;-62
2022/12/05 12:01:17;;;;;;;15.00;11.52;;;21.50;51.40;;;;;;5033558;28;44338;-62
2022/12/05 12:04:11;;;;;;;16.33;11.98;;;21.50;51.40;;;;;;5023310;28;43579;-62
2022/12/05 12:06:44;;;;;;;16.58;11.63;;;21.40;51.30;;;;;;5023969;28;43420;-62
2022/12/05 12:09:43;;;;;;;15.85;10.63;;;21.40;51.40;;;;;;5022824;28;43594;-62
2022/12/05 12:12:36;;;;;;;14.13;11.05;;;21.30;51.40;;;;;;5033019;28;44893;-62
2022/12/05 12:15:24;;;;;;;13.10;10.50;;;21.30;51.50;;;;;;5025949;28;43397;-62
2022/12/05 12:18:13;;;;;;;14.27;10.98;;;21.30;51.60;;;;;;5029290;28;43458;-61
2022/12/05 12:20:40;;;;;;;13.43;10.27;;;21.20;51.60;;;;;;5040714;28;43475;-62
2022/12/05 12:23:36;;;;;;;12.63;10.20;;;21.20;51.80;;;;;;5030934;28;44032;-62
2022/12/05 12:26:24;;;;;;;13.48;10.90;;;21.10;51.80;;;;;;5019967;28;43952;-62
2022/12/05 12:29:14;;;;;;;12.40;10.60;;;21.10;51.90;;;;;;5037822;28;43438;-61
2022/12/05 12:32:05;;;;;;;13.60;10.45;;;21.10;51.90;;;;;;5030102;28;43604;-61
2022/12/05 12:34:48;;;;;;;13.68;10.65;;;21.00;52.00;;;;;;5025243;28;44771;-61
2022/12/05 12:37:19;;;;;;;12.25;9.68;;;20.90;52.10;;;;;;5027984;28;43479;-62
2022/12/05 12:39:47;;;;;;;13.90;10.95;;;20.90;52.20;;;;;;5030522;28;43361;-62
2022/12/05 12:42:26;;;;;;;15.13;11.20;;;20.80;52.20;;;;;;5035757;28;43444;-62
2022/12/05 12:45:14;;;;;;;14.07;9.45;;;20.80;52.20;;;;;;5037438;28;44197;-62
2022/12/05 12:47:56;;;;;;;12.68;9.13;;;20.70;52.30;;;;;;5031034;28;43452;-62
2022/12/05 12:50:36;;;;;;;11.65;9.35;;;20.70;52.40;;;;;;5025478;28;43533;-62
2022/12/05 12:53:33;;;;;;;11.30;8.93;;;20.70;52.40;;;;;;5039180;28;43398;-62
2022/12/05 12:56:23;;;;;;;12.93;9.45;;;20.60;52.40;;;;;;5041498;28;44373;-61
2022/12/05 12:58:56;;;;;;;14.07;9.27;;;20.60;52.60;;;;;;5033952;28;43894;-61
2022/12/05 13:01:38;;;;;;;12.25;8.50;;;20.60;52.50;;;;;;5031233;28;43455;-61
2022/12/05 13:04:14;;;;;;;9.82;7.80;;;20.50;52.50;;;;;;5037194;28;43456;-61
2022/12/05 13:06:56;;;;;;;11.18;8.35;;;20.50;52.50;;;;;;5030219;28;44131;-61
2022/12/05 13:09:42;;;;;;;11.23;7.78;;;20.50;52.70;;;;;;5029304;28;43587;-61
2022/12/05 13:12:24;;;;;;;10.00;7.43;;;20.50;52.80;;;;;;5035920;28;43432;-61
2022/12/05 13:15:20;;;;;;;10.80;7.28;;;20.40;53.30;;;;;;5032939;28;43568;-61
2022/12/05 13:17:48;;;;;;;8.68;6.85;;;20.40;52.70;;;;;;5022306;28;44186;-61
2022/12/05 13:20:20;;;;;;;9.32;7.07;;;20.40;52.80;;;;;;5036957;28;43481;-61
2022/12/05 13:22:50;;;;;;;9.63;6.88;;;20.40;52.80;;;;;;5040369;28;43420;-61
2022/12/05 13:25:20;;;;;;;9.77;7.00;;;20.30;52.80;;;;;;5028490;28;43418;-61
2022/12/05 13:28:01;;;;;;;7.68;6.10;;;20.30;52.80;;;;;;5037199;28;45007;-61
2022/12/05 13:30:30;;;;;;;8.90;6.68;;;20.30;52.80;;;;;;5026781;28;43462;-61
2022/12/05 13:33:02;;;;;;;7.65;5.97;;;20.20;52.90;;;;;;5040282;28;43459;-61
2022/12/05 13:44:11;;;;;;;8.15;6.28;;;20.20;53.10;;;;;;5033869;28;43388;-62